sensor_id;sensor_type;location;lat;lon;timestamp;temperature;humidity
72576;DHT22;60613;48.658;2.328;2022-08-01T00:01:52;28.80;38.10
72576;DHT22;60613;48.658;2.328;2022-08-01T00:04:18;28.80;38.10
72576;DHT22;60613;48.658;2.328;2022-08-01T00:06:43;28.80;38.10
72576;DHT22;60613;48.658;2.328;2022-08-01T00:09:09;28.80;38.20
72576;DHT22;60613;48.658;2.328;2022-08-01T00:11:34;28.80;38.10
72576;DHT22;60613;48.658;2.328;2022-08-01T00:14:00;28.80;38.00
72576;DHT22;60613;48.658;2.328;2022-08-01T00:16:26;28.80;38.00
72576;DHT22;60613;48.658;2.328;2022-08-01T00:18:51;28.80;38.10
72576;DHT22;60613;48.658;2.328;2022-08-01T00:21:17;28.80;38.10
72576;DHT22;60613;48.658;2.328;2022-08-01T00:23:43;28.80;38.10
72576;DHT22;60613;48.658;2.328;2022-08-01T00:26:11;28.80;39.20
72576;DHT22;60613;48.658;2.328;2022-08-01T00:28:38;28.80;38.10
72576;DHT22;60613;48.658;2.328;2022-08-01T00:31:04;28.80;38.00
72576;DHT22;60613;48.658;2.328;2022-08-01T00:33:29;28.80;38.10
72576;DHT22;60613;48.658;2.328;2022-08-01T00:35:55;28.80;38.10
72576;DHT22;60613;48.658;2.328;2022-08-01T00:38:21;28.80;38.10
72576;DHT22;60613;48.658;2.328;2022-08-01T00:40:47;28.80;38.10
72576;DHT22;60613;48.658;2.328;2022-08-01T00:43:12;28.80;38.10
72576;DHT22;60613;48.658;2.328;2022-08-01T00:45:38;28.80;38.10
72576;DHT22;60613;48.658;2.328;2022-08-01T00:48:04;28.70;38.00
72576;DHT22;60613;48.658;2.328;2022-08-01T00:50:29;28.70;38.10
72576;DHT22;60613;48.658;2.328;2022-08-01T00:52:55;28.80;38.00
72576;DHT22;60613;48.658;2.328;2022-08-01T00:55:23;28.70;38.10
72576;DHT22;60613;48.658;2.328;2022-08-01T00:57:49;28.70;38.10
72576;DHT22;60613;48.658;2.328;2022-08-01T01:00:15;28.70;38.10
72576;DHT22;60613;48.658;2.328;2022-08-01T01:02:40;28.70;38.10
72576;DHT22;60613;48.658;2.328;2022-08-01T01:05:07;28.70;38.10
72576;DHT22;60613;48.658;2.328;2022-08-01T01:10:12;28.70;38.10
72576;DHT22;60613;48.658;2.328;2022-08-01T01:12:59;28.70;38.10
72576;DHT22;60613;48.658;2.328;2022-08-01T01:15:44;28.70;38.10
72576;DHT22;60613;48.658;2.328;2022-08-01T01:18:22;28.70;38.10
72576;DHT22;60613;48.658;2.328;2022-08-01T01:31:48;28.70;38.10
72576;DHT22;60613;48.658;2.328;2022-08-01T01:34:18;28.60;38.10
72576;DHT22;60613;48.658;2.328;2022-08-01T01:36:46;28.70;38.20
72576;DHT22;60613;48.658;2.328;2022-08-01T01:39:13;28.70;38.10
72576;DHT22;60613;48.658;2.328;2022-08-01T01:41:40;28.60;38.70
72576;DHT22;60613;48.658;2.328;2022-08-01T01:44:07;28.60;38.00
72576;DHT22;60613;48.658;2.328;2022-08-01T01:46:35;28.60;38.10
72576;DHT22;60613;48.658;2.328;2022-08-01T01:49:02;28.60;38.00
72576;DHT22;60613;48.658;2.328;2022-08-01T01:51:28;28.60;38.10
72576;DHT22;60613;48.658;2.328;2022-08-01T01:53:56;28.60;38.00
72576;DHT22;60613;48.658;2.328;2022-08-01T01:56:23;28.60;38.00
72576;DHT22;60613;48.658;2.328;2022-08-01T01:58:52;28.60;38.10
72576;DHT22;60613;48.658;2.328;2022-08-01T02:01:20;28.60;38.10
72576;DHT22;60613;48.658;2.328;2022-08-01T02:03:48;28.60;38.00
72576;DHT22;60613;48.658;2.328;2022-08-01T02:06:15;28.60;38.10
72576;DHT22;60613;48.658;2.328;2022-08-01T02:08:42;28.60;38.10
72576;DHT22;60613;48.658;2.328;2022-08-01T02:11:09;28.60;38.10
72576;DHT22;60613;48.658;2.328;2022-08-01T02:13:50;28.50;38.00
72576;DHT22;60613;48.658;2.328;2022-08-01T02:16:17;28.60;38.10
72576;DHT22;60613;48.658;2.328;2022-08-01T02:18:44;28.50;38.00
72576;DHT22;60613;48.658;2.328;2022-08-01T02:21:13;28.60;38.10
72576;DHT22;60613;48.658;2.328;2022-08-01T02:23:40;28.50;38.00
72576;DHT22;60613;48.658;2.328;2022-08-01T02:26:10;28.50;38.00
72576;DHT22;60613;48.658;2.328;2022-08-01T02:28:53;28.50;38.00
72576;DHT22;60613;48.658;2.328;2022-08-01T02:31:21;28.50;38.00
72576;DHT22;60613;48.658;2.328;2022-08-01T02:33:54;28.50;38.00
72576;DHT22;60613;48.658;2.328;2022-08-01T02:36:25;28.50;38.10
72576;DHT22;60613;48.658;2.328;2022-08-01T02:38:52;28.50;38.00
72576;DHT22;60613;48.658;2.328;2022-08-01T02:41:20;28.50;38.00
72576;DHT22;60613;48.658;2.328;2022-08-01T02:43:49;28.50;38.00
72576;DHT22;60613;48.658;2.328;2022-08-01T02:46:22;28.50;38.10
72576;DHT22;60613;48.658;2.328;2022-08-01T02:48:51;28.50;38.10
72576;DHT22;60613;48.658;2.328;2022-08-01T02:51:19;28.50;38.00
72576;DHT22;60613;48.658;2.328;2022-08-01T02:53:47;28.50;38.00
72576;DHT22;60613;48.658;2.328;2022-08-01T02:56:15;28.40;37.90
72576;DHT22;60613;48.658;2.328;2022-08-01T02:58:43;28.50;38.00
72576;DHT22;60613;48.658;2.328;2022-08-01T03:01:10;28.50;38.10
72576;DHT22;60613;48.658;2.328;2022-08-01T03:03:37;28.40;38.00
72576;DHT22;60613;48.658;2.328;2022-08-01T03:06:04;28.40;38.00
72576;DHT22;60613;48.658;2.328;2022-08-01T03:08:30;28.40;38.00
72576;DHT22;60613;48.658;2.328;2022-08-01T03:10:57;28.40;38.10
72576;DHT22;60613;48.658;2.328;2022-08-01T03:13:25;28.40;38.00
72576;DHT22;60613;48.658;2.328;2022-08-01T03:15:54;28.40;38.10
72576;DHT22;60613;48.658;2.328;2022-08-01T03:18:22;28.40;38.00
72576;DHT22;60613;48.658;2.328;2022-08-01T03:20:50;28.40;38.00
72576;DHT22;60613;48.658;2.328;2022-08-01T03:23:17;28.40;38.00
72576;DHT22;60613;48.658;2.328;2022-08-01T03:25:44;28.40;38.00
72576;DHT22;60613;48.658;2.328;2022-08-01T03:28:13;28.40;38.00
72576;DHT22;60613;48.658;2.328;2022-08-01T03:30:40;28.30;38.00
72576;DHT22;60613;48.658;2.328;2022-08-01T03:33:06;28.40;38.00
72576;DHT22;60613;48.658;2.328;2022-08-01T03:35:48;28.40;38.00
72576;DHT22;60613;48.658;2.328;2022-08-01T03:38:19;28.40;38.00
72576;DHT22;60613;48.658;2.328;2022-08-01T03:40:49;28.40;38.00
72576;DHT22;60613;48.658;2.328;2022-08-01T03:45:58;28.30;38.00
72576;DHT22;60613;48.658;2.328;2022-08-01T03:48:28;28.30;37.90
72576;DHT22;60613;48.658;2.328;2022-08-01T03:50:58;28.30;38.00
72576;DHT22;60613;48.658;2.328;2022-08-01T03:53:26;28.30;38.00
72576;DHT22;60613;48.658;2.328;2022-08-01T03:55:55;28.30;37.90
72576;DHT22;60613;48.658;2.328;2022-08-01T03:58:22;28.30;37.90
72576;DHT22;60613;48.658;2.328;2022-08-01T04:00:48;28.30;38.00
72576;DHT22;60613;48.658;2.328;2022-08-01T04:03:14;28.30;37.90
72576;DHT22;60613;48.658;2.328;2022-08-01T04:05:43;28.30;38.00
72576;DHT22;60613;48.658;2.328;2022-08-01T04:08:09;28.30;39.20
72576;DHT22;60613;48.658;2.328;2022-08-01T04:10:35;28.30;38.00
72576;DHT22;60613;48.658;2.328;2022-08-01T04:13:01;28.30;38.00
72576;DHT22;60613;48.658;2.328;2022-08-01T04:15:27;28.30;38.00
72576;DHT22;60613;48.658;2.328;2022-08-01T04:17:53;28.30;38.00
72576;DHT22;60613;48.658;2.328;2022-08-01T04:20:20;28.30;39.10
72576;DHT22;60613;48.658;2.328;2022-08-01T04:22:45;28.30;38.00
72576;DHT22;60613;48.658;2.328;2022-08-01T04:25:34;28.30;37.90
72576;DHT22;60613;48.658;2.328;2022-08-01T04:28:01;28.30;38.00
72576;DHT22;60613;48.658;2.328;2022-08-01T04:30:31;28.20;37.90
72576;DHT22;60613;48.658;2.328;2022-08-01T04:33:00;28.20;37.90
72576;DHT22;60613;48.658;2.328;2022-08-01T04:35:27;28.20;37.90
72576;DHT22;60613;48.658;2.328;2022-08-01T04:37:53;28.20;37.90
72576;DHT22;60613;48.658;2.328;2022-08-01T04:40:20;28.20;37.90
72576;DHT22;60613;48.658;2.328;2022-08-01T04:42:48;28.20;37.90
72576;DHT22;60613;48.658;2.328;2022-08-01T04:45:14;28.20;37.90
72576;DHT22;60613;48.658;2.328;2022-08-01T04:47:40;28.20;37.90
72576;DHT22;60613;48.658;2.328;2022-08-01T04:50:07;28.20;37.90
72576;DHT22;60613;48.658;2.328;2022-08-01T04:52:37;28.20;37.80
72576;DHT22;60613;48.658;2.328;2022-08-01T04:55:04;28.20;37.80
72576;DHT22;60613;48.658;2.328;2022-08-01T04:57:36;28.20;37.90
72576;DHT22;60613;48.658;2.328;2022-08-01T05:00:02;28.20;37.80
72576;DHT22;60613;48.658;2.328;2022-08-01T05:02:28;28.20;37.80
72576;DHT22;60613;48.658;2.328;2022-08-01T05:04:54;28.20;37.90
72576;DHT22;60613;48.658;2.328;2022-08-01T05:07:22;28.20;37.90
72576;DHT22;60613;48.658;2.328;2022-08-01T05:09:48;28.20;37.90
72576;DHT22;60613;48.658;2.328;2022-08-01T05:12:14;28.20;37.90
72576;DHT22;60613;48.658;2.328;2022-08-01T05:14:39;28.20;37.90
72576;DHT22;60613;48.658;2.328;2022-08-01T05:17:07;28.10;37.80
72576;DHT22;60613;48.658;2.328;2022-08-01T05:19:33;28.10;37.80
72576;DHT22;60613;48.658;2.328;2022-08-01T05:22:04;28.10;37.90
72576;DHT22;60613;48.658;2.328;2022-08-01T05:24:31;28.20;37.90
72576;DHT22;60613;48.658;2.328;2022-08-01T05:26:57;28.10;37.90
72576;DHT22;60613;48.658;2.328;2022-08-01T05:29:23;28.10;37.80
72576;DHT22;60613;48.658;2.328;2022-08-01T05:31:49;28.20;37.90
72576;DHT22;60613;48.658;2.328;2022-08-01T05:34:15;28.10;37.90
72576;DHT22;60613;48.658;2.328;2022-08-01T05:36:41;28.10;37.80
72576;DHT22;60613;48.658;2.328;2022-08-01T05:39:07;28.10;37.80
72576;DHT22;60613;48.658;2.328;2022-08-01T05:41:33;28.10;37.80
72576;DHT22;60613;48.658;2.328;2022-08-01T05:43:59;28.10;37.90
72576;DHT22;60613;48.658;2.328;2022-08-01T05:46:25;28.10;37.90
72576;DHT22;60613;48.658;2.328;2022-08-01T05:48:50;28.10;37.90
72576;DHT22;60613;48.658;2.328;2022-08-01T05:51:16;28.10;37.90
72576;DHT22;60613;48.658;2.328;2022-08-01T05:53:41;28.10;37.90
72576;DHT22;60613;48.658;2.328;2022-08-01T05:56:07;28.10;37.90
72576;DHT22;60613;48.658;2.328;2022-08-01T05:58:32;28.10;38.00
72576;DHT22;60613;48.658;2.328;2022-08-01T06:00:58;28.00;37.80
72576;DHT22;60613;48.658;2.328;2022-08-01T06:03:24;28.00;37.90
72576;DHT22;60613;48.658;2.328;2022-08-01T06:05:51;28.10;37.90
72576;DHT22;60613;48.658;2.328;2022-08-01T06:08:17;28.00;38.00
72576;DHT22;60613;48.658;2.328;2022-08-01T06:10:42;28.00;37.90
72576;DHT22;60613;48.658;2.328;2022-08-01T06:13:08;28.10;38.00
72576;DHT22;60613;48.658;2.328;2022-08-01T06:15:34;28.10;37.90
72576;DHT22;60613;48.658;2.328;2022-08-01T06:17:59;28.00;38.00
72576;DHT22;60613;48.658;2.328;2022-08-01T06:20:25;28.10;38.00
72576;DHT22;60613;48.658;2.328;2022-08-01T06:22:51;28.10;38.00
72576;DHT22;60613;48.658;2.328;2022-08-01T06:25:18;28.00;37.90
72576;DHT22;60613;48.658;2.328;2022-08-01T06:27:44;28.00;37.90
72576;DHT22;60613;48.658;2.328;2022-08-01T06:30:10;28.00;37.90
72576;DHT22;60613;48.658;2.328;2022-08-01T06:32:35;28.00;37.90
72576;DHT22;60613;48.658;2.328;2022-08-01T06:35:01;28.00;37.90
72576;DHT22;60613;48.658;2.328;2022-08-01T06:37:31;28.10;38.00
72576;DHT22;60613;48.658;2.328;2022-08-01T06:40:08;28.00;37.90
72576;DHT22;60613;48.658;2.328;2022-08-01T06:42:35;28.10;38.00
72576;DHT22;60613;48.658;2.328;2022-08-01T06:45:11;28.00;37.90
72576;DHT22;60613;48.658;2.328;2022-08-01T06:47:37;28.00;38.00
72576;DHT22;60613;48.658;2.328;2022-08-01T06:50:05;28.00;37.90
72576;DHT22;60613;48.658;2.328;2022-08-01T06:52:30;28.00;38.00
72576;DHT22;60613;48.658;2.328;2022-08-01T06:54:56;28.00;38.00
72576;DHT22;60613;48.658;2.328;2022-08-01T06:57:22;28.00;37.90
72576;DHT22;60613;48.658;2.328;2022-08-01T06:59:48;28.00;39.10
72576;DHT22;60613;48.658;2.328;2022-08-01T07:02:13;28.00;38.00
72576;DHT22;60613;48.658;2.328;2022-08-01T07:04:39;28.00;37.90
72576;DHT22;60613;48.658;2.328;2022-08-01T07:07:05;28.00;38.00
72576;DHT22;60613;48.658;2.328;2022-08-01T07:09:30;28.00;38.00
72576;DHT22;60613;48.658;2.328;2022-08-01T07:11:56;28.00;38.00
72576;DHT22;60613;48.658;2.328;2022-08-01T07:14:22;28.00;39.10
72576;DHT22;60613;48.658;2.328;2022-08-01T07:16:48;28.00;38.00
72576;DHT22;60613;48.658;2.328;2022-08-01T07:19:14;28.00;38.00
72576;DHT22;60613;48.658;2.328;2022-08-01T07:21:40;28.00;38.00
72576;DHT22;60613;48.658;2.328;2022-08-01T07:24:07;28.00;38.00
72576;DHT22;60613;48.658;2.328;2022-08-01T07:26:33;28.00;38.00
72576;DHT22;60613;48.658;2.328;2022-08-01T07:28:59;28.00;38.00
72576;DHT22;60613;48.658;2.328;2022-08-01T07:31:25;28.00;38.00
72576;DHT22;60613;48.658;2.328;2022-08-01T07:33:50;28.00;38.00
72576;DHT22;60613;48.658;2.328;2022-08-01T07:36:17;28.00;38.60
72576;DHT22;60613;48.658;2.328;2022-08-01T07:38:43;28.00;38.00
72576;DHT22;60613;48.658;2.328;2022-08-01T07:41:09;28.00;38.00
72576;DHT22;60613;48.658;2.328;2022-08-01T07:43:35;28.00;38.00
72576;DHT22;60613;48.658;2.328;2022-08-01T07:46:02;28.00;38.00
72576;DHT22;60613;48.658;2.328;2022-08-01T07:48:28;28.00;38.00
72576;DHT22;60613;48.658;2.328;2022-08-01T07:50:54;28.00;38.00
72576;DHT22;60613;48.658;2.328;2022-08-01T07:53:20;28.00;38.00
72576;DHT22;60613;48.658;2.328;2022-08-01T07:55:45;28.00;38.00
72576;DHT22;60613;48.658;2.328;2022-08-01T07:58:11;28.00;38.00
72576;DHT22;60613;48.658;2.328;2022-08-01T08:00:37;28.00;39.20
72576;DHT22;60613;48.658;2.328;2022-08-01T08:03:03;28.00;38.00
72576;DHT22;60613;48.658;2.328;2022-08-01T08:05:28;28.00;38.00
72576;DHT22;60613;48.658;2.328;2022-08-01T08:07:54;28.00;38.00
72576;DHT22;60613;48.658;2.328;2022-08-01T08:10:20;28.00;38.00
72576;DHT22;60613;48.658;2.328;2022-08-01T08:12:46;28.00;38.00
72576;DHT22;60613;48.658;2.328;2022-08-01T08:15:13;28.00;38.00
72576;DHT22;60613;48.658;2.328;2022-08-01T08:17:39;28.00;38.00
72576;DHT22;60613;48.658;2.328;2022-08-01T08:20:06;28.00;38.00
72576;DHT22;60613;48.658;2.328;2022-08-01T08:22:32;28.00;38.00
72576;DHT22;60613;48.658;2.328;2022-08-01T08:24:59;28.00;38.00
72576;DHT22;60613;48.658;2.328;2022-08-01T08:27:25;28.00;37.90
72576;DHT22;60613;48.658;2.328;2022-08-01T08:29:50;28.00;37.90
72576;DHT22;60613;48.658;2.328;2022-08-01T08:32:16;28.00;37.90
72576;DHT22;60613;48.658;2.328;2022-08-01T08:34:42;28.00;38.00
72576;DHT22;60613;48.658;2.328;2022-08-01T08:37:08;28.00;39.10
72576;DHT22;60613;48.658;2.328;2022-08-01T08:39:33;28.00;38.00
72576;DHT22;60613;48.658;2.328;2022-08-01T08:41:59;28.00;37.90
72576;DHT22;60613;48.658;2.328;2022-08-01T08:44:25;28.00;38.00
72576;DHT22;60613;48.658;2.328;2022-08-01T08:46:52;28.00;38.00
72576;DHT22;60613;48.658;2.328;2022-08-01T08:49:21;28.00;37.90
72576;DHT22;60613;48.658;2.328;2022-08-01T08:51:48;28.00;38.00
72576;DHT22;60613;48.658;2.328;2022-08-01T08:54:14;28.00;38.00
72576;DHT22;60613;48.658;2.328;2022-08-01T08:56:42;28.00;38.00
72576;DHT22;60613;48.658;2.328;2022-08-01T08:59:08;28.00;38.00
72576;DHT22;60613;48.658;2.328;2022-08-01T09:01:34;28.00;38.00
72576;DHT22;60613;48.658;2.328;2022-08-01T09:04:02;28.00;38.00
72576;DHT22;60613;48.658;2.328;2022-08-01T09:06:28;28.00;38.00
72576;DHT22;60613;48.658;2.328;2022-08-01T09:08:55;28.00;38.00
72576;DHT22;60613;48.658;2.328;2022-08-01T09:11:21;28.00;38.00
72576;DHT22;60613;48.658;2.328;2022-08-01T09:14:10;28.00;38.00
72576;DHT22;60613;48.658;2.328;2022-08-01T09:16:39;28.00;38.00
72576;DHT22;60613;48.658;2.328;2022-08-01T09:19:17;28.00;38.00
72576;DHT22;60613;48.658;2.328;2022-08-01T09:22:00;28.00;38.00
72576;DHT22;60613;48.658;2.328;2022-08-01T09:24:27;28.00;38.00
72576;DHT22;60613;48.658;2.328;2022-08-01T09:26:54;28.00;38.00
72576;DHT22;60613;48.658;2.328;2022-08-01T09:29:30;28.00;38.00
72576;DHT22;60613;48.658;2.328;2022-08-01T09:31:57;28.00;38.00
72576;DHT22;60613;48.658;2.328;2022-08-01T09:34:29;28.00;38.00
72576;DHT22;60613;48.658;2.328;2022-08-01T09:36:57;28.00;38.00
72576;DHT22;60613;48.658;2.328;2022-08-01T09:39:31;28.00;38.00
72576;DHT22;60613;48.658;2.328;2022-08-01T09:42:02;28.00;38.00
72576;DHT22;60613;48.658;2.328;2022-08-01T09:44:44;28.00;38.10
72576;DHT22;60613;48.658;2.328;2022-08-01T09:47:11;28.00;38.10
72576;DHT22;60613;48.658;2.328;2022-08-01T09:49:39;28.00;38.10
72576;DHT22;60613;48.658;2.328;2022-08-01T09:52:16;28.00;38.10
72576;DHT22;60613;48.658;2.328;2022-08-01T09:54:44;28.00;38.10
72576;DHT22;60613;48.658;2.328;2022-08-01T09:57:18;28.00;38.10
72576;DHT22;60613;48.658;2.328;2022-08-01T09:59:46;28.00;38.20
72576;DHT22;60613;48.658;2.328;2022-08-01T10:02:13;28.00;38.20
72576;DHT22;60613;48.658;2.328;2022-08-01T10:04:50;28.00;38.30
72576;DHT22;60613;48.658;2.328;2022-08-01T10:07:17;28.00;38.10
72576;DHT22;60613;48.658;2.328;2022-08-01T10:09:44;28.00;38.20
72576;DHT22;60613;48.658;2.328;2022-08-01T10:12:12;28.00;38.20
72576;DHT22;60613;48.658;2.328;2022-08-01T10:14:38;28.00;38.20
72576;DHT22;60613;48.658;2.328;2022-08-01T10:17:09;28.00;38.10
72576;DHT22;60613;48.658;2.328;2022-08-01T10:19:36;28.00;38.20
72576;DHT22;60613;48.658;2.328;2022-08-01T10:22:06;28.00;38.10
72576;DHT22;60613;48.658;2.328;2022-08-01T10:24:39;28.00;38.10
72576;DHT22;60613;48.658;2.328;2022-08-01T10:27:09;28.00;38.10
72576;DHT22;60613;48.658;2.328;2022-08-01T10:29:52;28.00;38.10
72576;DHT22;60613;48.658;2.328;2022-08-01T10:32:20;28.00;38.20
72576;DHT22;60613;48.658;2.328;2022-08-01T10:34:51;28.00;38.10
72576;DHT22;60613;48.658;2.328;2022-08-01T10:37:18;28.00;38.20
72576;DHT22;60613;48.658;2.328;2022-08-01T10:39:44;28.00;38.20
72576;DHT22;60613;48.658;2.328;2022-08-01T10:42:11;28.00;38.20
72576;DHT22;60613;48.658;2.328;2022-08-01T10:44:38;28.00;38.20
72576;DHT22;60613;48.658;2.328;2022-08-01T10:47:12;28.00;38.10
72576;DHT22;60613;48.658;2.328;2022-08-01T10:50:03;28.00;38.00
72576;DHT22;60613;48.658;2.328;2022-08-01T10:52:29;28.10;38.10
72576;DHT22;60613;48.658;2.328;2022-08-01T10:55:06;28.00;38.10
72576;DHT22;60613;48.658;2.328;2022-08-01T10:57:44;28.10;39.30
72576;DHT22;60613;48.658;2.328;2022-08-01T11:00:17;28.00;38.10
72576;DHT22;60613;48.658;2.328;2022-08-01T11:03:00;28.00;38.00
72576;DHT22;60613;48.658;2.328;2022-08-01T11:05:28;28.10;38.10
72576;DHT22;60613;48.658;2.328;2022-08-01T11:07:55;28.10;38.10
72576;DHT22;60613;48.658;2.328;2022-08-01T11:10:34;28.10;38.10
72576;DHT22;60613;48.658;2.328;2022-08-01T11:13:03;28.00;38.00
72576;DHT22;60613;48.658;2.328;2022-08-01T11:15:35;28.10;38.10
72576;DHT22;60613;48.658;2.328;2022-08-01T11:18:44;28.10;38.10
72576;DHT22;60613;48.658;2.328;2022-08-01T11:21:01;28.10;38.10
72576;DHT22;60613;48.658;2.328;2022-08-01T11:23:28;28.10;38.10
72576;DHT22;60613;48.658;2.328;2022-08-01T11:28:25;28.10;38.10
72576;DHT22;60613;48.658;2.328;2022-08-01T11:30:53;28.10;38.20
72576;DHT22;60613;48.658;2.328;2022-08-01T11:38:38;28.10;38.10
72576;DHT22;60613;48.658;2.328;2022-08-01T11:52:13;28.10;38.20
72576;DHT22;60613;48.658;2.328;2022-08-01T11:59:54;28.10;38.10
72576;DHT22;60613;48.658;2.328;2022-08-01T12:02:32;28.10;38.10
72576;DHT22;60613;48.658;2.328;2022-08-01T12:05:10;28.10;38.10
72576;DHT22;60613;48.658;2.328;2022-08-01T12:07:37;28.10;38.20
72576;DHT22;60613;48.658;2.328;2022-08-01T12:10:09;28.10;38.20
72576;DHT22;60613;48.658;2.328;2022-08-01T12:12:37;28.10;38.20
72576;DHT22;60613;48.658;2.328;2022-08-01T12:15:08;28.10;38.30
72576;DHT22;60613;48.658;2.328;2022-08-01T12:17:36;28.10;38.30
72576;DHT22;60613;48.658;2.328;2022-08-01T12:20:21;28.10;38.30
72576;DHT22;60613;48.658;2.328;2022-08-01T12:22:47;28.10;38.20
72576;DHT22;60613;48.658;2.328;2022-08-01T12:25:17;28.10;38.30
72576;DHT22;60613;48.658;2.328;2022-08-01T12:27:45;28.10;38.20
72576;DHT22;60613;48.658;2.328;2022-08-01T12:30:13;28.10;38.20
72576;DHT22;60613;48.658;2.328;2022-08-01T12:32:41;28.10;38.30
72576;DHT22;60613;48.658;2.328;2022-08-01T12:35:19;28.10;38.30
72576;DHT22;60613;48.658;2.328;2022-08-01T12:37:49;28.10;38.30
72576;DHT22;60613;48.658;2.328;2022-08-01T12:42:45;28.10;38.30
72576;DHT22;60613;48.658;2.328;2022-08-01T12:45:15;28.10;38.40
72576;DHT22;60613;48.658;2.328;2022-08-01T12:47:41;28.10;38.40
72576;DHT22;60613;48.658;2.328;2022-08-01T12:50:14;28.10;38.40
72576;DHT22;60613;48.658;2.328;2022-08-01T12:52:40;28.10;38.30
72576;DHT22;60613;48.658;2.328;2022-08-01T12:55:13;28.10;38.40
72576;DHT22;60613;48.658;2.328;2022-08-01T12:57:42;28.10;38.40
72576;DHT22;60613;48.658;2.328;2022-08-01T13:00:24;28.10;38.40
72576;DHT22;60613;48.658;2.328;2022-08-01T13:05:27;28.10;39.60
72576;DHT22;60613;48.658;2.328;2022-08-01T13:07:52;28.10;38.40
72576;DHT22;60613;48.658;2.328;2022-08-01T13:10:28;28.20;38.40
72576;DHT22;60613;48.658;2.328;2022-08-01T13:12:58;28.20;38.40
72576;DHT22;60613;48.658;2.328;2022-08-01T13:15:27;28.10;38.30
72576;DHT22;60613;48.658;2.328;2022-08-01T13:17:55;28.10;38.40
72576;DHT22;60613;48.658;2.328;2022-08-01T13:20:26;28.20;38.50
72576;DHT22;60613;48.658;2.328;2022-08-01T13:22:52;28.20;38.40
72576;DHT22;60613;48.658;2.328;2022-08-01T13:25:18;28.10;38.40
72576;DHT22;60613;48.658;2.328;2022-08-01T13:27:44;28.20;39.00
72576;DHT22;60613;48.658;2.328;2022-08-01T13:30:15;28.20;38.40
72576;DHT22;60613;48.658;2.328;2022-08-01T13:32:42;28.20;38.50
72576;DHT22;60613;48.658;2.328;2022-08-01T13:35:11;28.20;38.50
72576;DHT22;60613;48.658;2.328;2022-08-01T13:37:40;28.20;38.50
72576;DHT22;60613;48.658;2.328;2022-08-01T13:40:08;28.20;38.50
72576;DHT22;60613;48.658;2.328;2022-08-01T13:42:34;28.20;38.50
72576;DHT22;60613;48.658;2.328;2022-08-01T13:45:00;28.20;38.50
72576;DHT22;60613;48.658;2.328;2022-08-01T13:47:26;28.20;38.50
72576;DHT22;60613;48.658;2.328;2022-08-01T13:49:51;28.20;38.50
72576;DHT22;60613;48.658;2.328;2022-08-01T13:52:17;28.20;38.50
72576;DHT22;60613;48.658;2.328;2022-08-01T13:54:43;28.20;38.50
72576;DHT22;60613;48.658;2.328;2022-08-01T13:57:08;28.20;38.50
72576;DHT22;60613;48.658;2.328;2022-08-01T13:59:34;28.20;38.50
72576;DHT22;60613;48.658;2.328;2022-08-01T14:02:00;28.20;38.50
72576;DHT22;60613;48.658;2.328;2022-08-01T14:04:26;28.20;38.50
72576;DHT22;60613;48.658;2.328;2022-08-01T14:06:51;28.20;38.40
72576;DHT22;60613;48.658;2.328;2022-08-01T14:09:17;28.20;38.40
72576;DHT22;60613;48.658;2.328;2022-08-01T14:11:45;28.20;38.40
72576;DHT22;60613;48.658;2.328;2022-08-01T14:14:10;28.20;38.40
72576;DHT22;60613;48.658;2.328;2022-08-01T14:16:36;28.20;38.40
72576;DHT22;60613;48.658;2.328;2022-08-01T14:19:03;28.20;38.40
72576;DHT22;60613;48.658;2.328;2022-08-01T14:21:28;28.30;38.50
72576;DHT22;60613;48.658;2.328;2022-08-01T14:23:54;28.20;38.40
72576;DHT22;60613;48.658;2.328;2022-08-01T14:26:20;28.20;38.40
72576;DHT22;60613;48.658;2.328;2022-08-01T14:28:45;28.20;38.40
72576;DHT22;60613;48.658;2.328;2022-08-01T14:31:11;28.30;38.50
72576;DHT22;60613;48.658;2.328;2022-08-01T14:33:37;28.30;38.40
72576;DHT22;60613;48.658;2.328;2022-08-01T14:36:03;28.30;38.50
72576;DHT22;60613;48.658;2.328;2022-08-01T14:38:28;28.30;38.50
72576;DHT22;60613;48.658;2.328;2022-08-01T14:40:54;28.30;38.50
72576;DHT22;60613;48.658;2.328;2022-08-01T14:43:20;28.30;38.40
72576;DHT22;60613;48.658;2.328;2022-08-01T14:45:46;28.30;38.40
72576;DHT22;60613;48.658;2.328;2022-08-01T14:48:16;28.30;38.50
72576;DHT22;60613;48.658;2.328;2022-08-01T14:50:41;28.30;38.40
72576;DHT22;60613;48.658;2.328;2022-08-01T14:53:07;28.30;38.50
72576;DHT22;60613;48.658;2.328;2022-08-01T14:55:33;28.30;39.60
72576;DHT22;60613;48.658;2.328;2022-08-01T14:57:58;28.30;38.40
72576;DHT22;60613;48.658;2.328;2022-08-01T15:00:24;28.30;38.40
72576;DHT22;60613;48.658;2.328;2022-08-01T15:02:50;28.30;38.40
72576;DHT22;60613;48.658;2.328;2022-08-01T15:05:16;28.30;38.50
72576;DHT22;60613;48.658;2.328;2022-08-01T15:07:41;28.30;38.60
72576;DHT22;60613;48.658;2.328;2022-08-01T15:10:07;28.30;38.60
72576;DHT22;60613;48.658;2.328;2022-08-01T15:12:33;28.30;38.50
72576;DHT22;60613;48.658;2.328;2022-08-01T15:15:02;28.30;38.50
72576;DHT22;60613;48.658;2.328;2022-08-01T15:17:29;28.30;38.60
72576;DHT22;60613;48.658;2.328;2022-08-01T15:19:58;28.30;38.60
72576;DHT22;60613;48.658;2.328;2022-08-01T15:22:25;28.30;39.20
72576;DHT22;60613;48.658;2.328;2022-08-01T15:24:52;28.20;40.00
72576;DHT22;60613;48.658;2.328;2022-08-01T15:27:18;28.00;40.00
72576;DHT22;60613;48.658;2.328;2022-08-01T15:29:44;28.10;40.70
72576;DHT22;60613;48.658;2.328;2022-08-01T15:32:11;28.00;40.50
72576;DHT22;60613;48.658;2.328;2022-08-01T15:34:38;27.80;41.00
72576;DHT22;60613;48.658;2.328;2022-08-01T15:37:05;27.80;41.00
72576;DHT22;60613;48.658;2.328;2022-08-01T15:39:31;27.80;41.10
72576;DHT22;60613;48.658;2.328;2022-08-01T15:42:05;27.90;41.00
72576;DHT22;60613;48.658;2.328;2022-08-01T15:44:31;28.00;41.50
72576;DHT22;60613;48.658;2.328;2022-08-01T15:46:56;28.00;41.00
72576;DHT22;60613;48.658;2.328;2022-08-01T15:49:22;28.00;40.60
72576;DHT22;60613;48.658;2.328;2022-08-01T15:51:49;28.10;40.50
72576;DHT22;60613;48.658;2.328;2022-08-01T15:54:16;28.20;40.50
72576;DHT22;60613;48.658;2.328;2022-08-01T15:56:42;28.30;40.10
72576;DHT22;60613;48.658;2.328;2022-08-01T15:59:09;28.30;40.00
72576;DHT22;60613;48.658;2.328;2022-08-01T16:01:35;28.30;39.10
72576;DHT22;60613;48.658;2.328;2022-08-01T16:04:00;28.30;38.90
72576;DHT22;60613;48.658;2.328;2022-08-01T16:06:26;28.40;38.50
72576;DHT22;60613;48.658;2.328;2022-08-01T16:08:52;28.40;38.90
72576;DHT22;60613;48.658;2.328;2022-08-01T16:11:18;28.40;38.80
72576;DHT22;60613;48.658;2.328;2022-08-01T16:13:44;28.40;38.40
72576;DHT22;60613;48.658;2.328;2022-08-01T16:16:11;28.30;38.50
72576;DHT22;60613;48.658;2.328;2022-08-01T16:18:37;28.30;38.10
72576;DHT22;60613;48.658;2.328;2022-08-01T16:21:04;28.30;38.50